Time;durP1;ratioP1;P1;durP2;ratioP2;P2;SDS_P1;SDS_P2;PMS_P1;PMS_P2;Temp;Humidity;BMP_temperature;BMP_pressure;BME280_temperature;BME280_humidity;BME280_pressure;Samples;Min_cycle;Max_cycle;Signal;HPM_P1;HPM_P2
2022/03/02 00:00:48;;;;;;;63.10;17.67;;;;;;;-5.20;100.00;100096.72;4340162;32;20062;-79
2022/03/02 00:03:15;;;;;;;63.90;19.48;;;;;;;-5.45;100.00;100042.72;4354651;32;20036;-80
2022/03/02 00:05:42;;;;;;;79.22;24.02;;;;;;;-5.24;100.00;100084.81;4368384;32;20039;-80
2022/03/02 00:08:08;;;;;;;98.40;31.12;;;;;;;-5.68;100.00;100040.09;4353038;32;20350;-79
2022/03/02 00:10:35;;;;;;;88.97;28.95;;;;;;;-5.73;100.00;100031.75;4368181;32;20566;-79
2022/03/02 00:13:02;;;;;;;106.20;31.62;;;;;;;-5.50;100.00;100074.59;4355782;32;20075;-80
2022/03/02 00:15:29;;;;;;;93.40;27.77;;;;;;;-5.48;100.00;100089.25;4356792;32;20063;-80
2022/03/02 00:17:56;;;;;;;104.20;31.08;;;;;;;-6.26;100.00;99967.66;4353848;32;20028;-80
2022/03/02 00:20:23;;;;;;;100.12;31.75;;;;;;;-5.90;100.00;100014.75;4367339;32;20061;-80
2022/03/02 00:22:52;;;;;;;80.80;24.98;;;;;;;-5.86;100.00;100032.72;4367615;32;20032;-80
2022/03/02 00:25:20;;;;;;;56.53;19.58;;;;;;;-5.87;100.00;100025.81;4357801;32;20035;-80
2022/03/02 00:27:47;;;;;;;57.97;20.80;;;;;;;-5.57;100.00;100079.47;4354167;32;20154;-81
2022/03/02 00:30:14;;;;;;;73.12;22.08;;;;;;;-5.52;100.00;100077.31;4364418;32;20059;-80
2022/03/02 00:32:42;;;;;;;64.68;22.08;;;;;;;-5.66;100.00;100053.97;4370629;32;20045;-78
2022/03/02 00:35:09;;;;;;;62.53;18.95;;;;;;;-5.90;100.00;100022.59;4357662;32;20065;-79
2022/03/02 00:37:36;;;;;;;59.63;17.60;;;;;;;-5.57;100.00;100079.47;4366735;32;20090;-79
2022/03/02 00:40:04;;;;;;;60.67;17.52;;;;;;;-5.61;100.00;100072.78;4369934;32;20044;-80
2022/03/02 00:42:31;;;;;;;46.25;15.73;;;;;;;-5.56;100.00;100078.50;4369666;32;20039;-78
2022/03/02 00:44:58;;;;;;;39.05;14.13;;;;;;;-5.53;100.00;100075.66;4326049;33;20044;-78
2022/03/02 00:47:25;;;;;;;34.50;12.60;;;;;;;-5.51;100.00;100078.16;4324138;33;20193;-80
2022/03/02 00:49:53;;;;;;;35.67;12.82;;;;;;;-5.87;100.00;100010.09;4323715;33;20048;-80
2022/03/02 00:52:21;;;;;;;44.33;14.87;;;;;;;-5.48;100.00;100072.66;4312668;33;20131;-80
2022/03/02 00:54:51;;;;;;;41.17;14.87;;;;;;;-5.49;100.00;100061.34;4302315;33;20054;-80
2022/03/02 00:57:20;;;;;;;52.85;14.73;;;;;;;-5.50;100.00;100059.66;4324883;33;20032;-80
2022/03/02 00:59:48;;;;;;;55.45;17.62;;;;;;;-5.49;100.00;100061.34;4322090;33;20070;-80
2022/03/02 01:02:15;;;;;;;46.35;16.90;;;;;;;-5.63;100.00;100040.59;4322829;33;20094;-78
2022/03/02 01:04:42;;;;;;;66.95;18.75;;;;;;;-5.60;100.00;100056.09;4310089;33;20468;-78
2022/03/02 01:07:08;;;;;;;50.65;17.85;;;;;;;-5.97;100.00;99998.66;4311697;33;20461;-79
2022/03/02 01:09:36;;;;;;;62.72;19.55;;;;;;;-6.00;100.00;99993.66;4301288;33;20052;-80
2022/03/02 01:12:04;;;;;;;67.40;19.70;;;;;;;-5.67;100.00;100047.03;4312135;33;20054;-79
2022/03/02 01:14:31;;;;;;;59.03;19.58;;;;;;;-6.81;100.00;99861.84;4324416;33;20040;-78
2022/03/02 01:17:04;;;;;;;61.55;18.55;;;;;;;-5.71;100.00;100041.19;4353786;32;20096;-79
2022/03/02 01:19:35;;;;;;;59.70;17.87;;;;;;;-5.71;100.00;100029.84;4356231;32;20057;-80
2022/03/02 01:22:03;;;;;;;43.67;14.38;;;;;;;-5.63;100.00;100030.09;4369394;32;20052;-80
2022/03/02 01:24:30;;;;;;;57.75;15.55;;;;;;;-5.92;100.00;99965.03;4357236;32;20047;-80
2022/03/02 01:26:57;;;;;;;68.20;18.17;;;;;;;-5.53;100.00;100028.41;4355141;32;20113;-80
2022/03/02 01:29:24;;;;;;;57.50;17.40;;;;;;;-5.56;100.00;100023.41;4346293;32;20102;-78
2022/03/02 01:31:51;;;;;;;46.03;17.45;;;;;;;-5.64;100.00;100010.06;4365649;32;20089;-78
2022/03/02 01:34:18;;;;;;;52.08;17.20;;;;;;;-5.63;100.00;100018.75;4361857;32;20044;-80
2022/03/02 01:36:47;;;;;;;54.00;16.98;;;;;;;-5.63;100.00;100018.75;4354507;32;20058;-80
2022/03/02 01:39:13;;;;;;;40.83;14.32;;;;;;;-5.97;100.00;99956.69;4340247;33;20036;-79
2022/03/02 01:41:40;;;;;;;39.28;13.75;;;;;;;-5.69;100.00;100006.97;4354103;32;20075;-78
2022/03/02 01:44:08;;;;;;;43.63;14.20;;;;;;;-5.70;100.00;100007.91;4342524;33;20039;-79
2022/03/02 01:46:35;;;;;;;27.92;12.13;;;;;;;-6.07;100.00;99946.09;4370630;32;20036;-78
2022/03/02 01:49:04;;;;;;;48.90;13.80;;;;;;;-5.76;100.00;100004.00;4356557;32;20109;-79
2022/03/02 01:51:32;;;;;;;40.00;13.93;;;;;;;-5.74;100.00;100009.94;4351628;32;20036;-78
2022/03/02 01:53:59;;;;;;;36.65;12.32;;;;;;;-6.10;100.00;99945.50;4355063;32;20069;-78
2022/03/02 01:56:26;;;;;;;38.58;13.45;;;;;;;-5.78;100.00;100000.63;4357124;32;20471;-78
2022/03/02 01:58:53;;;;;;;37.42;13.98;;;;;;;-5.81;100.00;100002.69;4357305;32;20039;-79
2022/03/02 02:01:20;;;;;;;35.80;13.40;;;;;;;-6.18;100.00;99951.34;4363648;32;20423;-79
2022/03/02 02:03:48;;;;;;;33.78;12.20;;;;;;;-5.85;100.00;100002.91;4369448;32;20087;-78
2022/03/02 02:06:15;;;;;;;41.50;14.43;;;;;;;-5.85;100.00;99991.59;4369319;32;20421;-78
2022/03/02 02:08:43;;;;;;;33.83;13.10;;;;;;;-5.85;100.00;99996.84;4349549;32;20078;-77
2022/03/02 02:11:13;;;;;;;50.33;15.30;;;;;;;-5.87;100.00;99986.47;4356546;32;20053;-79
2022/03/02 02:13:40;;;;;;;47.10;13.45;;;;;;;-6.30;100.00;99912.97;4347696;33;20065;-79
2022/03/02 02:16:07;;;;;;;42.83;12.60;;;;;;;-6.08;100.00;99961.94;4362360;32;20844;-79
2022/03/02 02:18:35;;;;;;;27.35;9.95;;;;;;;-5.87;100.00;99983.84;4364511;32;20065;-78
2022/03/02 02:21:03;;;;;;;31.15;9.98;;;;;;;-5.77;100.00;99977.87;4374812;32;20053;-79
2022/03/02 02:23:30;;;;;;;31.87;10.90;;;;;;;-5.42;100.00;99969.00;4366602;32;20069;-79
2022/03/02 02:25:58;;;;;;;33.72;12.23;;;;;;;-5.72;100.00;99866.34;4369174;32;20701;-80
2022/03/02 02:28:30;;;;;;;33.58;11.10;;;;;;;-4.85;100.00;99970.44;4368533;32;20069;-80
2022/03/02 02:30:58;;;;;;;40.63;13.55;;;;;;;-5.04;100.00;99912.47;4368231;32;20058;-80
2022/03/02 02:33:29;;;;;;;44.47;17.00;;;;;;;-4.79;100.00;99956.75;4363199;32;20050;-79
2022/03/02 02:35:56;;;;;;;57.10;18.65;;;;;;;-5.03;100.00;99969.31;4356570;32;20047;-79
2022/03/02 02:38:23;;;;;;;49.28;17.30;;;;;;;-5.53;100.00;99910.31;4356185;32;20435;-79
2022/03/02 02:40:52;;;;;;;57.20;19.83;;;;;;;-5.31;100.00;99955.81;4369490;32;20061;-79
2022/03/02 02:43:23;;;;;;;53.25;20.67;;;;;;;-5.66;100.00;99912.28;4367961;32;20052;-79
2022/03/02 02:45:51;;;;;;;58.15;19.62;;;;;;;-5.85;100.00;99892.75;4308005;33;20062;-80
2022/03/02 02:48:19;;;;;;;41.55;16.70;;;;;;;-5.55;100.00;99946.34;4308608;33;20045;-79
2022/03/02 02:50:46;;;;;;;49.13;19.37;;;;;;;-5.42;100.00;99951.44;4308634;33;20555;-80
2022/03/02 02:53:14;;;;;;;56.85;17.23;;;;;;;-5.33;100.00;99949.84;4307637;33;20032;-79
2022/03/02 02:55:43;;;;;;;57.38;20.05;;;;;;;-5.37;100.00;99958.94;4307497;33;20171;-79
2022/03/02 02:58:11;;;;;;;55.10;18.67;;;;;;;-5.61;100.00;99912.72;4337482;33;20047;-80
2022/03/02 03:00:44;;;;;;;73.60;19.80;;;;;;;-6.16;100.00;99841.13;4321719;33;20078;-80
2022/03/02 03:03:13;;;;;;;62.92;19.45;;;;;;;-5.80;100.00;99910.75;4321851;33;20102;-81
2022/03/02 03:05:44;;;;;;;65.35;19.98;;;;;;;-5.69;100.00;99944.81;4300346;33;20051;-81
2022/03/02 03:08:13;;;;;;;64.97;19.58;;;;;;;-6.07;100.00;99887.59;4310940;33;20069;-81
2022/03/02 03:10:42;;;;;;;62.62;20.23;;;;;;;-6.10;100.00;99887.81;4326857;33;20032;-80
2022/03/02 03:13:10;;;;;;;58.63;19.87;;;;;;;-6.12;100.00;99879.25;4310641;33;20036;-80
2022/03/02 03:15:37;;;;;;;66.03;20.10;;;;;;;-5.78;100.00;99939.47;4320433;33;20370;-80
2022/03/02 03:18:06;;;;;;;66.03;18.87;;;;;;;-5.80;100.00;99944.03;4368819;32;20047;-80
2022/03/02 03:20:35;;;;;;;78.78;19.98;;;;;;;-6.36;100.00;99846.16;4343706;32;20028;-80
2022/03/02 03:23:04;;;;;;;71.18;21.30;;;;;;;-5.75;100.00;99939.22;4356413;32;20380;-81
2022/03/02 03:25:30;;;;;;;133.50;30.23;;;;;;;-5.51;100.00;99929.38;4367817;32;20053;-81
2022/03/02 03:27:59;;;;;;;250.02;50.03;;;;;;;-5.54;100.00;99932.25;4356141;32;20061;-82
2022/03/02 03:30:27;;;;;;;243.60;47.75;;;;;;;-6.11;100.00;99849.44;4368413;32;20057;-82
2022/03/02 03:32:56;;;;;;;222.48;42.85;;;;;;;-6.73;100.00;99775.69;4366139;32;20032;-82
2022/03/02 03:35:26;;;;;;;234.48;47.60;;;;;;;-5.86;100.00;99927.78;4345849;32;20049;-81
2022/03/02 03:37:54;;;;;;;216.95;44.95;;;;;;;-5.95;100.00;99925.91;4326361;33;20044;-81
2022/03/02 03:40:22;;;;;;;200.60;41.00;;;;;;;-6.00;100.00;99925.47;4314563;33;20075;-81
2022/03/02 03:42:52;;;;;;;175.07;36.22;;;;;;;-6.05;100.00;99925.00;4324756;33;20063;-81
2022/03/02 03:45:19;;;;;;;186.90;39.92;;;;;;;-6.08;100.00;99923.47;4320274;33;20029;-79
2022/03/02 03:47:46;;;;;;;168.23;38.05;;;;;;;-6.06;100.00;99915.47;4322742;33;20217;-79
2022/03/02 03:50:14;;;;;;;159.15;35.75;;;;;;;-6.38;100.00;99858.56;4322559;33;20032;-79
2022/03/02 03:52:41;;;;;;;132.80;29.70;;;;;;;-6.39;100.00;99856.87;4319038;33;20037;-80
2022/03/02 03:55:10;;;;;;;135.60;30.45;;;;;;;-6.08;100.00;99920.00;4323784;33;20692;-78
2022/03/02 03:57:38;;;;;;;107.35;27.95;;;;;;;-6.08;100.00;99909.50;4318045;33;20058;-82
2022/03/02 04:00:09;;;;;;;105.40;24.90;;;;;;;-6.05;100.00;99907.50;4310767;33;20388;-80
2022/03/02 04:02:37;;;;;;;92.45;25.23;;;;;;;-6.59;100.00;99826.97;4310890;33;20062;-81
2022/03/02 04:05:04;;;;;;;97.10;24.92;;;;;;;-6.02;100.00;99916.87;4326386;33;20054;-79
2022/03/02 04:07:31;;;;;;;96.95;23.75;;;;;;;-6.00;100.00;99911.53;4326748;33;20033;-79
2022/03/02 04:09:59;;;;;;;88.57;22.33;;;;;;;-6.02;100.00;99911.66;4327097;33;20029;-79
2022/03/02 04:12:25;;;;;;;76.68;22.92;;;;;;;-6.03;100.00;99904.72;4315051;33;20066;-79
2022/03/02 04:14:52;;;;;;;79.18;22.30;;;;;;;-6.08;100.00;99901.63;4323788;33;20655;-79
2022/03/02 04:17:19;;;;;;;86.43;22.08;;;;;;;-6.10;100.00;99903.56;4356469;32;20028;-77
2022/03/02 04:19:47;;;;;;;69.32;18.83;;;;;;;-6.45;100.00;99841.63;4345758;32;20033;-77
2022/03/02 04:22:14;;;;;;;55.45;16.50;;;;;;;-6.45;100.00;99837.22;4366268;32;20028;-77
2022/03/02 04:24:41;;;;;;;59.60;17.08;;;;;;;-6.13;100.00;99898.56;4349520;32;20384;-78
2022/03/02 04:27:09;;;;;;;47.03;15.18;;;;;;;-6.15;100.00;99900.47;4370477;32;20032;-79
2022/03/02 04:29:36;;;;;;;43.20;14.87;;;;;;;-6.19;100.00;99893.78;4361253;32;20050;-78
2022/03/02 04:32:04;;;;;;;35.13;13.88;;;;;;;-6.23;100.00;99888.78;4347873;32;20057;-79
2022/03/02 04:34:31;;;;;;;41.25;14.35;;;;;;;-6.25;100.00;99895.94;4361032;32;20060;-79
2022/03/02 04:36:59;;;;;;;40.58;14.07;;;;;;;-6.25;100.00;99890.69;4373142;32;20041;-79
2022/03/02 04:39:27;;;;;;;37.58;12.75;;;;;;;-6.54;100.00;99842.34;4358444;32;20190;-79
2022/03/02 04:41:53;;;;;;;43.75;13.32;;;;;;;-6.62;100.00;99835.94;4361415;32;20035;-81
2022/03/02 04:44:21;;;;;;;60.70;16.40;;;;;;;-6.34;100.00;99882.72;4360986;32;20036;-80
2022/03/02 04:46:51;;;;;;;67.87;17.00;;;;;;;-6.72;100.00;99824.47;4368338;32;20042;-79
2022/03/02 04:49:19;;;;;;;52.40;15.60;;;;;;;-6.79;100.00;99818.06;4371064;32;20040;-80
2022/03/02 04:51:48;;;;;;;68.45;15.70;;;;;;;-7.05;100.00;99786.03;4363686;32;20040;-80
2022/03/02 04:57:05;;;;;;;52.58;14.75;;;;;;;-6.46;100.00;99882.75;4369442;32;20083;-80
2022/03/02 04:59:33;;;;;;;38.17;14.30;;;;;;;-6.48;100.00;99879.37;4372438;32;20051;-80
2022/03/02 05:02:01;;;;;;;63.42;15.38;;;;;;;-6.50;100.00;99875.22;4359119;32;20094;-80
2022/03/02 05:04:28;;;;;;;45.90;16.65;;;;;;;-6.52;100.00;99885.00;4358240;32;20103;-79
2022/03/02 05:06:56;;;;;;;48.60;15.90;;;;;;;-6.84;100.00;99834.13;4368340;32;20057;-79
2022/03/02 05:09:23;;;;;;;52.20;16.50;;;;;;;-6.95;100.00;99819.25;4359784;32;20255;-78
2022/03/02 05:11:50;;;;;;;42.35;15.15;;;;;;;-6.60;100.00;99873.31;4359765;32;20081;-79
2022/03/02 05:14:17;;;;;;;42.33;15.82;;;;;;;-6.99;100.00;99809.97;4357333;32;20053;-80
2022/03/02 05:16:44;;;;;;;53.10;15.98;;;;;;;-6.98;100.00;99808.19;4354844;32;20067;-79
2022/03/02 05:19:11;;;;;;;64.75;15.35;;;;;;;-6.98;100.00;99806.38;4357756;32;20047;-78
2022/03/02 05:21:38;;;;;;;44.60;15.73;;;;;;;-6.61;100.00;99857.72;4356172;32;20086;-81
2022/03/02 05:24:06;;;;;;;42.22;13.10;;;;;;;-6.58;100.00;99867.97;4342421;33;20455;-77
2022/03/02 05:26:33;;;;;;;52.47;14.35;;;;;;;-6.60;100.00;99854.97;4342119;33;20444;-81
2022/03/02 05:29:02;;;;;;;42.42;14.10;;;;;;;-6.60;100.00;99857.59;4347599;32;20031;-78
2022/03/02 05:31:28;;;;;;;39.75;13.90;;;;;;;-6.60;100.00;99854.16;4356562;32;20054;-76
2022/03/02 05:33:56;;;;;;;43.38;14.05;;;;;;;-6.96;100.00;99795.78;4354492;32;20061;-80
2022/03/02 05:36:24;;;;;;;50.33;15.40;;;;;;;-7.21;100.00;99757.59;4351975;32;20067;-79
2022/03/02 05:38:52;;;;;;;48.33;14.75;;;;;;;-6.57;100.00;99859.97;4368179;32;20179;-79
2022/03/02 05:41:20;;;;;;;55.75;15.40;;;;;;;-6.55;100.00;99869.53;4356889;32;20361;-79
2022/03/02 05:43:48;;;;;;;77.03;20.90;;;;;;;-6.54;100.00;99858.06;4370269;32;20054;-80
2022/03/02 05:46:14;;;;;;;62.15;20.95;;;;;;;-6.52;100.00;99864.87;4368286;32;20027;-79
2022/03/02 05:48:41;;;;;;;65.57;19.67;;;;;;;-6.60;100.00;99844.50;4351689;32;20050;-82
2022/03/02 05:51:08;;;;;;;57.85;17.37;;;;;;;-6.89;100.00;99796.16;4350875;32;20290;-79
2022/03/02 05:53:35;;;;;;;58.38;22.85;;;;;;;-6.81;100.00;99804.25;4370517;32;20057;-83
2022/03/02 05:56:02;;;;;;;67.85;20.23;;;;;;;-6.50;100.00;99860.34;4369602;32;20127;-79
2022/03/02 05:58:30;;;;;;;90.47;22.92;;;;;;;-6.49;100.00;99858.53;4355884;32;20072;-80
2022/03/02 06:00:59;;;;;;;66.05;20.12;;;;;;;-6.81;100.00;99807.72;4342520;32;20426;-79
2022/03/02 06:03:27;;;;;;;52.15;17.25;;;;;;;-6.44;100.00;99852.00;4368750;32;20336;-78
2022/03/02 06:05:54;;;;;;;51.22;17.95;;;;;;;-6.42;100.00;99863.19;4354948;32;20031;-79
2022/03/02 06:08:21;;;;;;;65.37;21.48;;;;;;;-6.73;100.00;99798.41;4355774;32;20041;-80
2022/03/02 06:10:49;;;;;;;78.55;22.27;;;;;;;-6.35;100.00;99858.31;4342373;32;20046;-80
2022/03/02 06:13:20;;;;;;;69.35;20.90;;;;;;;-6.68;100.00;99804.16;4356851;32;20172;-79
2022/03/02 06:15:46;;;;;;;62.35;20.35;;;;;;;-6.31;100.00;99858.91;4354170;32;20674;-78
2022/03/02 06:18:14;;;;;;;72.03;20.90;;;;;;;-6.27;100.00;99860.31;4364541;32;20028;-79
2022/03/02 06:20:42;;;;;;;69.45;24.48;;;;;;;-6.23;100.00;99852.09;4346460;32;20154;-78
2022/03/02 06:23:10;;;;;;;66.50;22.15;;;;;;;-6.52;100.00;99799.34;4349135;33;20085;-78
2022/03/02 06:25:37;;;;;;;65.10;20.83;;;;;;;-6.11;100.00;99852.06;4347772;32;20049;-80
2022/03/02 06:28:05;;;;;;;66.30;21.90;;;;;;;-6.43;100.00;99795.16;4344681;32;20020;-79
2022/03/02 06:30:32;;;;;;;82.85;21.25;;;;;;;-6.03;100.00;99847.87;4357142;32;20057;-79
2022/03/02 06:33:00;;;;;;;81.70;22.52;;;;;;;-5.88;100.00;99858.06;4355791;32;20043;-78
2022/03/02 06:35:26;;;;;;;79.80;22.80;;;;;;;-6.16;100.00;99797.38;4362033;32;20032;-79
2022/03/02 06:37:54;;;;;;;63.45;20.37;;;;;;;-5.66;100.00;99852.75;4340404;33;20020;-78
2022/03/02 06:40:22;;;;;;;64.43;23.42;;;;;;;-6.00;100.00;99786.47;4340860;33;20432;-78
2022/03/02 06:43:11;;;;;;;67.37;21.75;;;;;;;-5.58;100.00;99846.88;4338300;33;20189;-78
2022/03/02 06:45:41;;;;;;;63.40;22.90;;;;;;;-5.49;100.00;99843.50;4340750;33;20422;-78
2022/03/02 06:48:17;;;;;;;86.18;22.85;;;;;;;-5.56;100.00;99823.94;4339703;33;20455;-79
2022/03/02 06:50:49;;;;;;;80.43;23.33;;;;;;;-5.67;100.00;99795.16;4352203;32;20062;-78
2022/03/02 06:53:16;;;;;;;54.83;20.08;;;;;;;-5.40;100.00;99822.69;4335303;33;20190;-79
2022/03/02 06:55:44;;;;;;;53.80;20.37;;;;;;;-5.49;100.00;99796.25;4370785;32;21523;-77
2022/03/02 06:58:12;;;;;;;75.80;20.95;;;;;;;-5.33;100.00;99798.44;4352963;32;20032;-79
2022/03/02 07:00:39;;;;;;;62.95;21.12;;;;;;;-4.84;100.00;99856.47;4340874;32;20866;-79
2022/03/02 07:03:10;;;;;;;58.47;22.13;;;;;;;-5.49;100.00;99724.53;4371875;32;20417;-79
2022/03/02 07:05:38;;;;;;;67.78;19.67;;;;;;;-4.98;100.00;99793.78;4369598;32;20051;-77
2022/03/02 07:08:10;;;;;;;65.22;18.55;;;;;;;-4.52;100.00;99850.25;4357411;32;20448;-77
2022/03/02 07:10:37;;;;;;;64.50;18.35;;;;;;;-4.39;100.00;99856.13;4366212;32;20039;-77
2022/03/02 07:13:06;;;;;;;61.95;21.50;;;;;;;-4.29;100.00;99844.78;4356247;32;20064;-77
2022/03/02 07:15:34;;;;;;;63.58;20.10;;;;;;;-4.19;100.00;99837.78;4369704;32;20035;-81
2022/03/02 07:18:04;;;;;;;63.90;20.85;;;;;;;-4.06;100.00;99838.34;4357271;32;20048;-84
2022/03/02 07:20:31;;;;;;;60.78;19.48;;;;;;;-4.24;100.00;99784.75;4359472;32;20103;-81
2022/03/02 07:23:06;;;;;;;51.58;18.77;;;;;;;-4.05;100.00;99784.78;4385892;32;20115;-77
2022/03/02 07:25:37;;;;;;;43.50;17.05;;;;;;;-3.65;100.00;99833.84;4382486;32;20102;-77
2022/03/02 07:28:04;;;;;;;47.10;16.95;;;;;;;-3.79;100.00;99781.59;4352742;32;20099;-78
2022/03/02 07:30:31;;;;;;;47.83;14.25;;;;;;;-3.76;100.00;99762.91;4362459;32;20114;-79
2022/03/02 07:33:03;;;;;;;45.53;15.73;;;;;;;-3.16;100.00;99827.69;4370087;32;20077;-81
2022/03/02 07:35:34;;;;;;;41.08;14.35;;;;;;;-2.97;100.00;99827.69;4355340;32;20065;-80
2022/03/02 07:38:03;;;;;;;29.05;10.13;;;;;;;-2.82;100.00;99829.84;4366993;32;20054;-77
2022/03/02 07:40:30;;;;;;;40.40;12.63;;;;;;;-2.61;100.00;99825.19;4364231;32;20059;-78
2022/03/02 07:42:59;;;;;;;30.80;11.55;;;;;;;-3.22;100.00;99692.12;4367362;32;20032;-78
2022/03/02 07:45:26;;;;;;;27.87;12.27;;;;;;;-2.18;100.00;99832.63;4366719;32;20099;-78
2022/03/02 07:47:53;;;;;;;36.60;10.80;;;;;;;-2.03;100.00;99820.56;4368047;32;20463;-76
2022/03/02 07:50:20;;;;;;;25.90;9.23;;;;;;;-2.21;100.00;99760.69;4357055;32;20066;-77
2022/03/02 07:52:51;;;;;;;20.48;7.65;;;;;;;-1.66;100.00;99816.97;4349753;32;20031;-78
2022/03/02 07:55:19;;;;;;;21.33;8.07;;;;;;;-1.42;100.00;99823.44;4367841;32;20060;-75
2022/03/02 07:57:52;;;;;;;15.32;7.57;;;;;;;-1.22;100.00;99832.87;4354243;32;20507;-79
2022/03/02 08:00:19;;;;;;;36.67;12.88;;;;;;;-1.10;100.00;99818.44;4370843;32;20046;-81
2022/03/02 08:02:47;;;;;;;38.97;12.77;;;;;;;-0.97;100.00;99819.84;4355271;32;20036;-79
2022/03/02 08:05:14;;;;;;;29.50;10.40;;;;;;;-0.87;100.00;99827.66;4346833;32;20334;-79
2022/03/02 08:07:42;;;;;;;24.85;10.20;;;;;;;-0.84;100.00;99817.59;4348130;32;20431;-76
2022/03/02 08:10:10;;;;;;;28.23;11.15;;;;;;;-0.71;100.00;99813.69;4370142;32;20055;-78
2022/03/02 08:12:36;;;;;;;28.98;11.00;;;;;;;-0.66;100.00;99820.16;4368121;32;20413;-78
2022/03/02 08:15:05;;;;;;;29.45;11.20;;;;;;;-1.23;100.00;99711.47;4352431;32;20377;-79
2022/03/02 08:17:33;;;;;;;22.80;8.13;;;;;;;-0.86;100.00;99750.81;4355282;32;20047;-78
2022/03/02 08:20:00;;;;;;;25.60;7.93;;;;;;;-0.71;100.00;99751.03;4355421;32;20057;-77
2022/03/02 08:22:30;;;;;;;15.52;7.43;;;;;;;-0.60;100.00;99760.53;4368101;32;20376;-78
2022/03/02 08:25:12;;;;;;;13.30;5.57;;;;;;;-0.13;100.00;99807.62;4345188;33;20043;-78
2022/03/02 08:27:46;;;;;;;18.27;6.45;;;;;;;-0.38;100.00;99762.56;4349113;32;20069;-79
2022/03/02 08:30:13;;;;;;;14.25;5.37;;;;;;;-0.35;100.00;99752.66;4345796;32;20077;-77
2022/03/02 08:32:44;;;;;;;19.70;6.70;;;;;;;0.01;100.00;99816.78;4354272;32;20070;-78
2022/03/02 08:35:12;;;;;;;12.88;6.15;;;;;;;-0.23;100.00;99767.25;4359695;32;20174;-79
2022/03/02 08:37:40;;;;;;;16.08;6.45;;;;;;;-0.36;100.00;99741.25;4351905;32;20035;-78
2022/03/02 08:40:09;;;;;;;21.50;6.32;;;;;;;-0.18;100.00;99770.22;4366699;32;20058;-77
2022/03/02 08:42:36;;;;;;;15.70;7.07;;;;;;;0.13;100.00;99810.19;4347564;32;20028;-77
2022/03/02 08:45:04;;;;;;;19.23;8.13;;;;;;;0.16;100.00;99811.66;4345872;32;20071;-79
2022/03/02 08:47:37;;;;;;;16.42;6.22;;;;;;;0.20;100.00;99810.37;4353760;32;20370;-78
2022/03/02 08:50:06;;;;;;;18.30;7.00;;;;;;;0.24;100.00;99806.41;4354191;32;20059;-78
2022/03/02 08:52:34;;;;;;;13.40;6.30;;;;;;;-0.25;100.00;99716.31;4367566;32;20401;-82
2022/03/02 08:55:11;;;;;;;16.60;7.05;;;;;;;0.32;100.00;99793.16;4367814;32;20178;-79
2022/03/02 08:57:43;;;;;;;25.48;10.02;;;;;;;0.13;100.00;99745.81;4356531;32;20061;-78
2022/03/02 09:00:15;;;;;;;12.37;6.53;;;;;;;0.53;100.00;99802.44;4355719;32;20059;-77
2022/03/02 09:02:46;;;;;;;;;;;;;;;0.56;100.00;99810.06;4368469;32;20141;-80
2022/03/02 09:05:13;;;;;;;20.15;7.82;;;;;;;0.59;100.00;99809.75;4356049;32;19994;-78
2022/03/02 09:07:41;;;;;;;17.40;7.90;;;;;;;0.61;100.00;99802.44;4358017;32;20367;-78
2022/03/02 09:10:08;;;;;;;11.27;4.70;;;;;;;0.58;100.00;99797.47;4357642;32;20069;-77
2022/03/02 09:12:37;;;;;;;9.68;5.32;;;;;;;0.58;100.00;99797.47;4354009;32;20039;-78
2022/03/02 09:15:05;;;;;;;12.90;6.37;;;;;;;0.15;100.00;99712.03;4354055;32;20426;-78
2022/03/02 09:17:31;;;;;;;16.35;5.32;;;;;;;0.14;100.00;99715.66;4355005;32;20024;-79
2022/03/02 09:19:59;;;;;;;9.63;3.92;;;;;;;0.59;100.00;99783.25;4351333;32;20057;-77
2022/03/02 09:22:27;;;;;;;8.82;5.22;;;;;;;0.58;99.42;99781.56;4354894;32;20392;-79
2022/03/02 09:24:56;;;;;;;10.95;3.87;;;;;;;0.68;100.00;99781.41;4369829;32;20081;-79
2022/03/02 09:27:27;;;;;;;12.73;5.37;;;;;;;0.71;100.00;99781.06;4357133;32;20079;-81
2022/03/02 09:29:57;;;;;;;11.77;4.97;;;;;;;0.82;99.60;99772.75;4368339;32;20488;-81
2022/03/02 09:32:25;;;;;;;11.02;5.10;;;;;;;0.82;100.00;99777.25;4368187;32;20033;-80
2022/03/02 09:34:55;;;;;;;10.07;4.20;;;;;;;0.84;100.00;99775.25;4351172;32;20516;-80
2022/03/02 09:37:24;;;;;;;18.55;5.60;;;;;;;0.86;98.09;99786.50;4362180;32;20027;-79
2022/03/02 09:39:52;;;;;;;11.93;5.28;;;;;;;0.83;99.93;99762.97;4362386;32;20036;-80
2022/03/02 09:42:25;;;;;;;15.05;5.65;;;;;;;1.00;100.00;99777.84;4360621;32;20040;-80
2022/03/02 09:45:18;;;;;;;15.70;5.90;;;;;;;1.01;100.00;99776.88;4353603;32;20366;-79
2022/03/02 09:47:49;;;;;;;17.60;5.85;;;;;;;0.38;100.00;99642.47;4335477;33;20028;-80
2022/03/02 09:50:18;;;;;;;12.50;5.87;;;;;;;1.28;100.00;99758.91;4326428;33;20048;-76
2022/03/02 09:52:47;;;;;;;11.40;4.68;;;;;;;1.13;100.00;99720.81;4327258;33;20074;-76
2022/03/02 09:55:16;;;;;;;11.70;5.18;;;;;;;1.43;94.58;99765.13;4326001;33;20243;-76
2022/03/02 09:57:46;;;;;;;14.30;5.75;;;;;;;1.48;96.66;99766.44;4324357;33;20044;-77
2022/03/02 10:00:16;;;;;;;12.70;5.20;;;;;;;1.46;95.93;99761.31;4326295;33;20900;-76
2022/03/02 10:02:46;;;;;;;14.85;5.35;;;;;;;1.01;94.17;99701.81;4339390;33;20087;-79
2022/03/02 10:05:18;;;;;;;17.02;6.40;;;;;;;1.14;97.39;99707.38;4337707;33;20058;-77
2022/03/02 10:08:00;;;;;;;21.27;6.97;;;;;;;1.29;92.50;99739.31;4337329;32;20113;-77
2022/03/02 10:10:31;;;;;;;13.60;4.97;;;;;;;1.41;91.82;99745.09;4339686;33;20028;-77
2022/03/02 10:13:01;;;;;;;18.90;6.10;;;;;;;1.47;90.49;99733.78;4338446;33;20174;-77
2022/03/02 10:15:28;;;;;;;14.20;6.25;;;;;;;1.20;86.92;99684.66;4335951;33;20066;-76
2022/03/02 10:17:59;;;;;;;16.98;6.15;;;;;;;1.54;82.56;99726.75;4316032;32;20049;-75
2022/03/02 10:20:31;;;;;;;11.02;4.87;;;;;;;1.39;83.44;99689.53;4371178;32;20475;-76
2022/03/02 10:23:25;;;;;;;16.17;5.90;;;;;;;1.57;72.70;99717.63;4362573;32;20082;-76
2022/03/02 10:26:18;;;;;;;18.45;7.22;;;;;;;1.68;77.62;99730.50;4356351;32;20051;-76
2022/03/02 10:28:59;;;;;;;;;;;;;;;1.52;83.32;99680.19;4353055;32;20051;-76
2022/03/02 10:31:41;;;;;;;17.33;6.85;;;;;;;1.92;90.30;99726.06;4354777;32;19951;-77
2022/03/02 10:34:57;;;;;;;16.85;7.15;;;;;;;2.09;89.80;99726.75;4355874;32;20370;-77
2022/03/02 10:37:31;;;;;;;21.98;7.80;;;;;;;2.10;85.49;99721.25;4338431;33;20032;-78
2022/03/02 10:40:09;;;;;;;18.42;7.12;;;;;;;2.09;81.79;99724.94;4351183;32;20085;-77
2022/03/02 10:42:43;;;;;;;15.00;7.40;;;;;;;2.06;84.85;99717.31;4354192;32;20097;-78
2022/03/02 10:45:21;;;;;;;14.93;5.70;;;;;;;2.09;85.87;99705.50;4356220;32;20483;-78
2022/03/02 10:48:07;;;;;;;13.57;6.75;;;;;;;1.94;84.34;99655.00;4354274;32;20044;-78
2022/03/02 10:50:35;;;;;;;15.55;5.90;;;;;;;2.23;83.50;99706.56;4355262;32;20063;-77
2022/03/02 10:53:05;;;;;;;13.93;5.28;;;;;;;2.14;84.57;99701.31;4352686;33;20080;-78
2022/03/02 10:55:32;;;;;;;12.65;5.50;;;;;;;2.35;84.66;99703.28;4353411;32;20389;-77
2022/03/02 10:58:02;;;;;;;21.90;7.43;;;;;;;2.46;81.64;99699.38;4355904;32;20437;-78
2022/03/02 11:00:29;;;;;;;15.70;5.32;;;;;;;2.36;78.81;99638.50;4354854;32;20070;-77
2022/03/02 11:02:57;;;;;;;14.87;5.85;;;;;;;2.54;74.32;99650.63;4355000;32;20048;-78
2022/03/02 11:05:29;;;;;;;8.90;4.72;;;;;;;2.87;71.29;99690.16;4353036;32;20058;-77
2022/03/02 11:07:56;;;;;;;8.57;4.62;;;;;;;3.05;69.68;99684.47;4354900;32;20055;-78
2022/03/02 11:10:33;;;;;;;14.05;4.55;;;;;;;3.18;70.32;99668.69;4354380;32;20031;-78
2022/03/02 11:13:03;;;;;;;10.80;4.82;;;;;;;2.98;63.72;99679.03;4354201;32;20040;-78
2022/03/02 11:15:57;;;;;;;18.17;4.80;;;;;;;2.56;64.36;99613.22;4352976;33;20031;-78
2022/03/02 11:18:55;;;;;;;10.85;4.75;;;;;;;2.98;64.63;99668.41;4354277;33;20066;-78
2022/03/02 11:21:30;;;;;;;10.55;5.18;;;;;;;3.34;63.36;99666.81;4355184;32;20052;-78
2022/03/02 11:24:01;;;;;;;10.65;5.60;;;;;;;3.51;55.72;99619.47;4354627;32;20065;-78
2022/03/02 11:26:31;;;;;;;8.40;4.93;;;;;;;4.00;61.92;99619.56;4353000;32;20074;-77